Time;durP1;ratioP1;P1;durP2;ratioP2;P2;SDS_P1;SDS_P2;PMS_P1;PMS_P2;Temp;Humidity;BMP_temperature;BMP_pressure;BME280_temperature;BME280_humidity;BME280_pressure;Samples;Min_cycle;Max_cycle;Signal;HPM_P1;HPM_P2
2022/06/06 00:01:40;;;;;;;9.20;8.30;;;16.40;99.90;;;;;;5057180;28;20458;-44
2022/06/06 00:04:06;;;;;;;9.40;8.45;;;16.40;99.90;;;;;;5059898;28;20500;-44
2022/06/06 00:06:33;;;;;;;10.48;8.10;;;16.40;99.90;;;;;;5053257;28;20061;-44
2022/06/06 00:09:00;;;;;;;9.73;8.20;;;16.40;99.90;;;;;;5068562;28;20052;-44
2022/06/06 00:11:27;;;;;;;7.60;6.75;;;16.40;99.90;;;;;;5091525;28;20109;-45
2022/06/06 00:13:54;;;;;;;6.90;6.20;;;16.40;99.90;;;;;;5093418;28;20121;-44
2022/06/06 00:16:22;;;;;;;7.57;6.80;;;16.30;99.90;;;;;;5094420;28;20048;-44
2022/06/06 00:18:49;;;;;;;7.45;6.68;;;16.30;99.90;;;;;;5093138;28;20050;-44
2022/06/06 00:21:15;;;;;;;8.40;7.50;;;16.40;99.90;;;;;;5055137;28;20056;-44
2022/06/06 00:23:44;;;;;;;8.70;7.30;;;16.30;99.90;;;;;;5054277;28;20109;-45
2022/06/06 00:26:12;;;;;;;8.70;7.55;;;16.40;99.90;;;;;;5054160;28;20383;-44
2022/06/06 00:28:39;;;;;;;7.95;7.15;;;16.30;99.90;;;;;;5053977;28;20456;-43
2022/06/06 00:36:32;;;;;;;8.70;7.80;;;16.30;99.90;;;;;;5069406;28;20041;-44
2022/06/06 00:38:59;;;;;;;7.68;6.88;;;16.30;99.90;;;;;;5053722;28;20071;-44
2022/06/06 00:41:26;;;;;;;10.93;8.05;;;16.30;99.90;;;;;;5052697;28;20056;-44
2022/06/06 00:44:03;;;;;;;10.93;7.78;;;16.30;99.90;;;;;;5052602;28;20563;-43
2022/06/06 00:46:30;;;;;;;9.15;7.60;;;16.20;99.90;;;;;;5055755;28;20084;-43
2022/06/06 00:48:58;;;;;;;9.15;7.60;;;16.20;99.90;;;;;;5082528;28;20051;-43
2022/06/06 00:51:25;;;;;;;10.68;8.60;;;16.20;99.90;;;;;;5092460;28;20097;-44
2022/06/06 00:53:53;;;;;;;8.48;7.18;;;16.20;99.90;;;;;;5068447;28;20118;-44
2022/06/06 00:56:28;;;;;;;7.95;6.18;;;16.20;99.90;;;;;;5073295;28;20056;-44
2022/06/06 00:58:57;;;;;;;7.93;7.10;;;16.20;99.90;;;;;;5073200;28;20135;-44
2022/06/06 01:01:26;;;;;;;7.03;6.32;;;16.20;99.90;;;;;;5071784;28;20045;-44
2022/06/06 01:03:52;;;;;;;7.30;6.20;;;16.10;99.90;;;;;;5068987;28;20553;-44
2022/06/06 01:06:22;;;;;;;6.75;5.70;;;16.10;99.90;;;;;;5056623;28;20053;-44
2022/06/06 01:08:50;;;;;;;6.45;5.25;;;16.10;99.90;;;;;;5066510;28;20049;-45
2022/06/06 01:11:17;;;;;;;6.63;6.03;;;16.10;99.90;;;;;;5060139;28;20051;-44
2022/06/06 01:13:45;;;;;;;9.90;6.78;;;16.10;99.90;;;;;;5057302;28;20126;-44
2022/06/06 01:16:30;;;;;;;6.90;6.10;;;16.00;99.90;;;;;;5052327;28;20041;-44
2022/06/06 01:19:03;;;;;;;7.13;6.40;;;16.00;99.90;;;;;;5064202;28;20052;-44
2022/06/06 01:21:46;;;;;;;6.90;6.20;;;16.00;99.90;;;;;;5070951;28;20052;-44
2022/06/06 01:24:41;;;;;;;9.10;7.18;;;15.90;99.90;;;;;;5063926;28;20130;-44
2022/06/06 01:27:26;;;;;;;7.75;6.45;;;15.90;99.90;;;;;;5053895;28;20169;-44
2022/06/06 01:29:57;;;;;;;9.23;6.68;;;15.80;99.90;;;;;;5052496;28;20053;-44
2022/06/06 01:32:24;;;;;;;11.95;7.75;;;15.80;99.90;;;;;;5065586;28;20088;-44
2022/06/06 01:34:53;;;;;;;8.32;6.70;;;15.80;99.90;;;;;;5063165;28;20053;-44
2022/06/06 01:37:37;;;;;;;9.73;6.65;;;15.80;99.90;;;;;;5066610;28;20447;-44
2022/06/06 01:40:05;;;;;;;9.75;7.38;;;15.80;99.90;;;;;;5056688;28;20132;-43
2022/06/06 01:42:34;;;;;;;8.85;7.68;;;15.70;99.90;;;;;;5051226;28;20041;-43
2022/06/06 01:45:06;;;;;;;7.68;6.22;;;15.70;99.90;;;;;;5051618;28;20048;-43
2022/06/06 01:47:35;;;;;;;8.35;7.55;;;15.80;99.90;;;;;;5066252;28;20049;-43
2022/06/06 01:50:02;;;;;;;8.13;7.25;;;15.70;99.90;;;;;;5052364;28;20106;-44
2022/06/06 01:52:28;;;;;;;8.18;7.38;;;15.70;99.90;;;;;;5052478;28;20098;-43
2022/06/06 01:54:56;;;;;;;9.10;8.05;;;15.70;99.90;;;;;;5050922;28;20087;-44
2022/06/06 01:57:23;;;;;;;9.38;8.18;;;15.70;99.90;;;;;;5068789;28;20098;-44
2022/06/06 01:59:51;;;;;;;9.10;7.50;;;15.60;99.90;;;;;;5058496;28;20049;-44
2022/06/06 02:02:19;;;;;;;10.23;8.52;;;15.60;99.90;;;;;;5057003;28;20084;-44
2022/06/06 02:04:46;;;;;;;12.18;9.00;;;15.60;99.90;;;;;;5054883;28;20401;-43
2022/06/06 02:07:12;;;;;;;10.02;8.73;;;15.60;99.90;;;;;;5070159;28;20052;-43
2022/06/06 02:09:39;;;;;;;13.65;8.98;;;15.60;99.90;;;;;;5059594;28;20055;-43
2022/06/06 02:12:09;;;;;;;9.88;8.88;;;15.50;99.90;;;;;;5054685;28;20045;-44
2022/06/06 02:14:36;;;;;;;9.80;7.82;;;15.60;99.90;;;;;;5070423;28;20044;-44
2022/06/06 02:17:05;;;;;;;12.15;9.00;;;15.50;99.90;;;;;;5066642;28;20081;-44
2022/06/06 02:19:33;;;;;;;9.40;7.72;;;15.50;99.90;;;;;;5059916;28;20060;-44
2022/06/06 02:22:00;;;;;;;10.07;7.60;;;15.50;99.90;;;;;;5076025;28;20441;-43
2022/06/06 02:24:27;;;;;;;8.85;7.75;;;15.50;99.90;;;;;;5075294;28;20088;-43
2022/06/06 02:26:54;;;;;;;8.98;7.85;;;15.50;99.90;;;;;;5058138;28;20095;-43
2022/06/06 02:29:20;;;;;;;9.80;7.72;;;15.60;99.90;;;;;;5074852;28;20330;-43
2022/06/06 02:31:47;;;;;;;11.13;8.38;;;15.50;99.90;;;;;;5064614;28;20084;-43
2022/06/06 02:34:14;;;;;;;9.07;7.40;;;15.50;99.90;;;;;;5063004;28;20044;-43
2022/06/06 02:36:42;;;;;;;11.75;8.30;;;15.50;99.90;;;;;;5062440;28;20555;-43
2022/06/06 02:39:09;;;;;;;9.30;8.23;;;15.50;99.90;;;;;;5058665;28;20067;-43
2022/06/06 02:41:36;;;;;;;7.72;6.38;;;15.50;99.90;;;;;;5055746;28;20080;-44
2022/06/06 02:44:03;;;;;;;6.47;5.60;;;15.50;99.90;;;;;;5055425;28;20053;-44
2022/06/06 02:46:30;;;;;;;8.70;7.32;;;15.50;99.90;;;;;;5055526;28;20506;-44
2022/06/06 02:48:56;;;;;;;8.40;6.60;;;15.50;99.90;;;;;;5061556;28;20504;-45
2022/06/06 02:51:23;;;;;;;7.50;6.60;;;15.50;99.90;;;;;;5064230;28;20056;-44
2022/06/06 02:53:51;;;;;;;9.55;8.07;;;15.50;99.90;;;;;;5055824;28;20111;-44
2022/06/06 02:56:18;;;;;;;8.80;7.57;;;15.50;99.90;;;;;;5053783;28;20049;-45
2022/06/06 02:58:45;;;;;;;8.50;7.25;;;15.50;99.90;;;;;;5054099;28;20049;-45
2022/06/06 03:01:12;;;;;;;9.05;7.28;;;15.50;99.90;;;;;;5055560;28;20045;-45
2022/06/06 03:03:39;;;;;;;7.78;6.97;;;15.50;99.90;;;;;;5068787;28;20435;-45
2022/06/06 03:06:18;;;;;;;9.70;8.48;;;15.50;99.90;;;;;;5057435;28;20060;-45
2022/06/06 03:08:59;;;;;;;17.35;13.48;;;15.50;99.90;;;;;;5073511;28;20052;-45
2022/06/06 03:11:41;;;;;;;22.50;18.30;;;15.50;99.90;;;;;;5067420;28;20084;-46
2022/06/06 03:14:22;;;;;;;26.02;21.55;;;15.40;99.90;;;;;;5070146;28;20052;-46
2022/06/06 03:22:43;;;;;;;37.63;25.67;;;15.30;99.90;;;;;;5073668;28;20048;-45
2022/06/06 03:25:17;;;;;;;36.63;24.67;;;15.30;99.90;;;;;;5059376;28;20146;-45
2022/06/06 03:27:47;;;;;;;44.38;28.75;;;15.30;99.90;;;;;;5055834;28;20053;-45
2022/06/06 03:30:20;;;;;;;35.95;25.20;;;15.30;99.90;;;;;;5053761;28;20053;-45
2022/06/06 03:32:52;;;;;;;24.17;17.42;;;15.30;99.90;;;;;;5057231;28;20052;-45
2022/06/06 03:35:22;;;;;;;23.75;15.38;;;15.20;99.90;;;;;;5072075;28;20052;-44
2022/06/06 03:37:54;;;;;;;22.80;16.83;;;15.20;99.90;;;;;;5059700;28;20390;-45
2022/06/06 03:40:26;;;;;;;22.27;16.65;;;15.20;99.90;;;;;;5053607;28;20114;-45
2022/06/06 03:42:57;;;;;;;31.05;18.95;;;15.10;99.90;;;;;;5067370;28;20079;-45
2022/06/06 03:45:26;;;;;;;22.63;16.55;;;15.10;99.90;;;;;;5058704;28;20084;-45
2022/06/06 03:48:00;;;;;;;27.45;17.25;;;15.10;99.90;;;;;;5066121;28;20463;-45
2022/06/06 03:50:30;;;;;;;24.15;15.55;;;15.10;99.90;;;;;;5054740;28;20080;-45
2022/06/06 03:53:01;;;;;;;25.02;16.45;;;15.10;99.90;;;;;;5054197;28;20132;-45
2022/06/06 03:55:33;;;;;;;28.27;18.23;;;15.00;99.90;;;;;;5052745;28;20098;-46
2022/06/06 03:58:03;;;;;;;24.63;15.77;;;15.00;99.90;;;;;;5073360;28;20049;-45
2022/06/06 04:00:29;;;;;;;26.88;15.45;;;15.00;99.90;;;;;;5069385;28;20137;-45
2022/06/06 04:02:56;;;;;;;26.48;15.85;;;15.00;99.90;;;;;;5070536;28;20091;-45
2022/06/06 04:05:23;;;;;;;18.88;13.02;;;15.00;99.90;;;;;;5068799;28;20056;-45
2022/06/06 04:07:50;;;;;;;17.92;12.77;;;15.00;99.90;;;;;;5072529;28;20102;-45
2022/06/06 04:10:17;;;;;;;18.60;12.15;;;15.00;99.90;;;;;;5059768;28;20053;-45
2022/06/06 04:12:58;;;;;;;17.27;12.05;;;15.00;99.90;;;;;;5053735;28;20106;-45
2022/06/06 04:15:29;;;;;;;16.90;11.70;;;15.00;99.90;;;;;;5066634;28;20485;-45
2022/06/06 04:18:08;;;;;;;15.73;10.95;;;15.00;99.90;;;;;;5059127;28;20061;-45
2022/06/06 04:20:37;;;;;;;16.73;11.60;;;15.00;99.90;;;;;;5053185;28;20049;-45
2022/06/06 04:23:16;;;;;;;14.77;11.02;;;15.00;99.90;;;;;;5063442;28;20041;-45
2022/06/06 04:25:50;;;;;;;13.20;9.18;;;14.90;99.90;;;;;;5053604;28;20041;-45
2022/06/06 04:28:21;;;;;;;19.67;11.48;;;15.00;99.90;;;;;;5058241;28;20095;-45
2022/06/06 04:30:51;;;;;;;21.50;12.82;;;14.90;99.90;;;;;;5065775;28;20040;-45
2022/06/06 04:33:20;;;;;;;23.40;14.43;;;14.90;99.90;;;;;;5064317;28;20443;-45
2022/06/06 04:35:54;;;;;;;27.77;16.15;;;14.90;99.90;;;;;;5053549;28;20049;-45
2022/06/06 04:38:23;;;;;;;27.58;16.10;;;14.80;99.90;;;;;;5056758;28;20095;-45
2022/06/06 04:40:52;;;;;;;28.88;16.35;;;14.80;99.90;;;;;;5072657;28;20505;-44
2022/06/06 04:43:25;;;;;;;26.83;15.20;;;14.80;99.90;;;;;;5050823;28;20049;-44
2022/06/06 04:45:54;;;;;;;29.33;17.98;;;14.80;99.90;;;;;;5053453;28;20045;-44
2022/06/06 04:48:21;;;;;;;29.35;16.70;;;14.80;99.90;;;;;;5054479;28;20095;-44
2022/06/06 04:50:48;;;;;;;26.73;15.82;;;14.80;99.90;;;;;;5062196;28;20132;-44
2022/06/06 04:53:17;;;;;;;27.80;14.30;;;14.80;99.90;;;;;;5059354;28;20045;-44
2022/06/06 04:55:44;;;;;;;25.85;14.90;;;14.80;99.90;;;;;;5067190;28;20405;-43
2022/06/06 04:58:10;;;;;;;26.08;14.70;;;14.70;99.90;;;;;;5052972;28;20431;-43
2022/06/06 05:00:39;;;;;;;24.20;15.13;;;14.70;99.90;;;;;;5053515;28;20151;-44
2022/06/06 05:03:06;;;;;;;26.10;14.07;;;14.70;99.90;;;;;;5060615;28;20053;-45
2022/06/06 05:05:36;;;;;;;22.63;14.13;;;14.70;99.90;;;;;;5052391;28;20106;-44
2022/06/06 05:08:09;;;;;;;22.00;13.95;;;14.70;99.90;;;;;;5053091;28;20092;-44
2022/06/06 05:10:52;;;;;;;24.88;14.23;;;14.70;99.90;;;;;;5053522;28;20053;-44
2022/06/06 05:13:52;;;;;;;23.23;14.05;;;14.80;99.90;;;;;;5053011;28;20049;-44
2022/06/06 05:16:32;;;;;;;21.40;13.07;;;14.80;99.90;;;;;;5050976;28;20518;-44
2022/06/06 05:19:08;;;;;;;21.17;12.60;;;14.70;99.90;;;;;;5065778;28;20174;-44
2022/06/06 05:21:41;;;;;;;20.90;12.45;;;14.70;99.90;;;;;;5070796;28;20048;-43
2022/06/06 05:24:21;;;;;;;16.77;11.85;;;14.70;99.90;;;;;;5057466;28;20505;-43
2022/06/06 05:26:56;;;;;;;16.58;11.55;;;14.70;99.90;;;;;;5056452;28;20060;-43
2022/06/06 05:29:33;;;;;;;20.42;12.02;;;14.60;99.90;;;;;;5051769;28;20113;-43
2022/06/06 05:32:10;;;;;;;19.85;11.35;;;14.60;99.90;;;;;;5063336;28;20123;-43
2022/06/06 05:34:38;;;;;;;20.10;11.73;;;14.60;99.90;;;;;;5064852;28;20111;-43
2022/06/06 05:37:18;;;;;;;18.73;12.00;;;14.70;99.90;;;;;;5051321;28;20382;-43
2022/06/06 05:40:03;;;;;;;17.48;11.10;;;14.70;99.90;;;;;;5057770;28;20049;-43
2022/06/06 05:42:41;;;;;;;16.10;11.02;;;14.70;99.90;;;;;;5070718;28;20106;-43
2022/06/06 05:45:13;;;;;;;18.15;11.43;;;14.70;99.90;;;;;;5070665;28;20106;-43
2022/06/06 05:47:48;;;;;;;19.73;11.48;;;14.70;99.90;;;;;;5057996;28;20464;-43
2022/06/06 05:50:25;;;;;;;18.23;11.93;;;14.70;99.90;;;;;;5052896;28;20610;-43
2022/06/06 05:53:07;;;;;;;20.55;11.20;;;14.70;99.90;;;;;;5051126;28;20056;-43
2022/06/06 05:55:42;;;;;;;17.70;11.23;;;14.70;99.90;;;;;;5053473;28;20118;-43
2022/06/06 05:58:29;;;;;;;18.67;10.93;;;14.80;99.90;;;;;;5053492;28;20047;-43
2022/06/06 06:01:04;;;;;;;17.38;10.60;;;14.80;99.90;;;;;;5051447;28;20049;-43
2022/06/06 06:04:01;;;;;;;17.05;10.48;;;14.80;99.90;;;;;;5052380;28;20045;-43
2022/06/06 06:06:30;;;;;;;17.60;11.30;;;14.80;99.90;;;;;;5045488;28;20410;-43
2022/06/06 06:09:06;;;;;;;19.38;12.00;;;14.80;99.90;;;;;;5055945;28;20044;-43
2022/06/06 06:11:42;;;;;;;18.33;11.63;;;14.80;99.90;;;;;;5071650;28;20102;-43
2022/06/06 06:14:13;;;;;;;15.20;10.75;;;14.80;99.90;;;;;;5070910;28;20049;-43
2022/06/06 06:16:43;;;;;;;22.13;14.45;;;14.80;99.90;;;;;;5057807;28;20450;-43
2022/06/06 06:19:13;;;;;;;28.15;16.05;;;14.90;99.90;;;;;;5054779;28;20052;-43
2022/06/06 06:21:41;;;;;;;25.45;14.93;;;14.80;99.90;;;;;;5052310;28;20049;-43
2022/06/06 06:24:09;;;;;;;28.83;16.05;;;14.90;99.90;;;;;;5066712;28;20071;-43
2022/06/06 06:26:36;;;;;;;30.02;15.13;;;14.90;99.90;;;;;;5050714;28;20438;-43
2022/06/06 06:29:04;;;;;;;27.08;15.15;;;14.90;99.90;;;;;;5061402;28;20106;-43
2022/06/06 06:31:38;;;;;;;28.83;15.25;;;14.90;99.90;;;;;;5071476;28;20592;-43
2022/06/06 06:34:15;;;;;;;27.88;14.60;;;14.90;99.90;;;;;;5059504;28;20572;-43
2022/06/06 06:36:44;;;;;;;25.55;12.95;;;15.00;99.90;;;;;;5055372;28;20111;-43
2022/06/06 06:39:37;;;;;;;23.67;13.32;;;15.10;99.90;;;;;;5054046;28;20107;-43
2022/06/06 06:42:17;;;;;;;18.63;10.45;;;15.30;99.90;;;;;;5070631;28;20045;-43
2022/06/06 06:44:47;;;;;;;20.42;10.93;;;15.50;99.90;;;;;;5070775;28;20049;-43
2022/06/06 06:47:16;;;;;;;17.70;10.85;;;15.60;99.90;;;;;;5071336;28;20105;-44
2022/06/06 06:49:45;;;;;;;17.88;10.27;;;15.70;99.90;;;;;;5054739;28;20048;-44
2022/06/06 06:52:20;;;;;;;21.45;10.50;;;15.70;99.90;;;;;;5064013;28;20133;-43
2022/06/06 06:55:03;;;;;;;16.15;10.13;;;15.80;99.90;;;;;;5052250;28;20894;-43
2022/06/06 06:57:38;;;;;;;16.92;10.30;;;15.80;99.90;;;;;;5068016;28;20048;-43
2022/06/06 07:00:08;;;;;;;18.75;10.43;;;15.70;99.90;;;;;;5054421;28;20103;-43
2022/06/06 07:08:36;;;;;;;19.52;10.35;;;15.90;99.90;;;;;;5054839;28;20303;-42
2022/06/06 07:11:25;;;;;;;23.63;11.30;;;16.00;99.90;;;;;;5056142;28;20049;-43
2022/06/06 07:14:03;;;;;;;17.83;10.75;;;16.00;99.90;;;;;;5057363;28;20566;-43
2022/06/06 07:16:31;;;;;;;19.55;10.70;;;16.10;99.90;;;;;;5065513;28;20460;-43
2022/06/06 07:19:00;;;;;;;20.63;10.70;;;16.20;99.90;;;;;;5054991;28;20053;-43
2022/06/06 07:21:29;;;;;;;20.52;10.32;;;16.20;99.90;;;;;;5054004;28;20519;-43
2022/06/06 07:23:56;;;;;;;15.48;9.60;;;16.30;99.90;;;;;;5069168;28;20047;-43
2022/06/06 07:26:23;;;;;;;17.77;9.75;;;16.30;99.90;;;;;;5059876;28;20123;-44
2022/06/06 07:28:50;;;;;;;14.65;8.70;;;16.40;99.90;;;;;;5073900;28;20569;-44
2022/06/06 07:31:23;;;;;;;13.05;8.38;;;16.40;99.90;;;;;;5069372;28;20052;-43
2022/06/06 07:34:09;;;;;;;11.50;7.65;;;16.50;99.90;;;;;;5065952;28;20052;-44
2022/06/06 07:36:46;;;;;;;15.65;8.00;;;16.40;99.90;;;;;;5056059;28;20493;-43
2022/06/06 07:39:18;;;;;;;12.30;8.05;;;16.40;99.90;;;;;;5054859;28;20049;-44
2022/06/06 07:42:04;;;;;;;13.25;7.65;;;16.40;99.90;;;;;;5055058;28;20045;-44
2022/06/06 07:44:40;;;;;;;14.60;8.52;;;16.50;99.90;;;;;;5054580;28;20076;-43
2022/06/06 07:47:12;;;;;;;14.05;7.78;;;16.50;99.90;;;;;;5052952;28;20127;-44
2022/06/06 07:49:43;;;;;;;17.15;9.60;;;16.60;99.90;;;;;;5070187;28;20052;-44
2022/06/06 07:52:15;;;;;;;11.82;7.82;;;16.80;99.90;;;;;;5057466;28;20473;-43
2022/06/06 07:54:47;;;;;;;14.68;9.32;;;17.00;99.90;;;;;;5052541;28;20096;-43
2022/06/06 07:57:19;;;;;;;14.98;9.02;;;17.10;99.90;;;;;;5059670;28;20466;-44
2022/06/06 07:59:52;;;;;;;16.75;9.73;;;17.00;99.90;;;;;;5063404;28;20053;-43
2022/06/06 08:02:36;;;;;;;23.92;10.27;;;17.00;99.90;;;;;;5053345;28;20045;-44
2022/06/06 08:05:15;;;;;;;15.25;9.88;;;16.90;99.90;;;;;;5053660;28;20084;-43
2022/06/06 08:07:46;;;;;;;18.23;11.32;;;16.80;99.90;;;;;;5059942;28;20103;-43
2022/06/06 08:10:18;;;;;;;16.48;9.93;;;16.70;99.90;;;;;;5053445;28;20124;-43
2022/06/06 08:13:13;;;;;;;17.73;10.13;;;16.60;99.90;;;;;;5053161;28;20083;-43
2022/06/06 08:15:54;;;;;;;16.20;11.10;;;16.60;99.90;;;;;;5051915;28;20048;-43
2022/06/06 08:18:36;;;;;;;21.27;10.00;;;16.60;99.90;;;;;;5059903;28;20053;-43
2022/06/06 08:21:07;;;;;;;14.38;8.50;;;16.80;99.90;;;;;;5054190;28;20057;-44
2022/06/06 08:23:37;;;;;;;13.55;7.80;;;17.00;99.90;;;;;;5062119;28;20055;-43
2022/06/06 08:26:04;;;;;;;13.88;7.75;;;17.20;99.90;;;;;;5054562;28;20076;-44
2022/06/06 08:28:31;;;;;;;13.80;6.80;;;17.30;99.90;;;;;;5077775;28;20052;-43
2022/06/06 08:30:58;;;;;;;15.02;6.07;;;17.40;99.90;;;;;;5054230;28;20048;-43
2022/06/06 08:33:25;;;;;;;9.68;5.55;;;17.30;99.90;;;;;;5062377;28;20106;-44
2022/06/06 08:36:14;;;;;;;7.72;5.18;;;17.20;99.90;;;;;;5058344;28;20048;-44
2022/06/06 08:38:46;;;;;;;10.60;5.45;;;17.10;99.90;;;;;;5068491;28;20083;-44
2022/06/06 08:41:36;;;;;;;8.45;4.80;;;17.00;99.90;;;;;;5061898;28;20454;-44
2022/06/06 08:44:05;;;;;;;10.05;4.88;;;17.00;99.90;;;;;;5052672;28;20056;-44
2022/06/06 08:46:45;;;;;;;8.02;4.10;;;16.90;99.90;;;;;;5072712;28;20084;-43
2022/06/06 08:52:12;;;;;;;9.85;4.45;;;16.90;99.90;;;;;;5052619;28;20207;-43
2022/06/06 08:55:04;;;;;;;7.93;3.67;;;17.00;99.90;;;;;;5053370;28;20060;-44
2022/06/06 08:57:35;;;;;;;;;;;17.30;99.90;;;;;;5047492;28;20048;-43
2022/06/06 09:00:09;;;;;;;9.57;3.15;;;17.60;99.90;;;;;;5053782;28;19964;-44
2022/06/06 09:03:03;;;;;;;5.45;2.55;;;17.90;99.90;;;;;;5073161;28;20047;-43
2022/06/06 09:06:11;;;;;;;6.88;2.58;;;18.10;99.90;;;;;;5052035;28;20460;-44
2022/06/06 09:09:22;;;;;;;10.23;2.53;;;18.10;99.90;;;;;;5053768;28;20092;-44
2022/06/06 09:12:21;;;;;;;8.10;2.60;;;17.90;99.90;;;;;;5051263;28;20053;-43
2022/06/06 09:15:23;;;;;;;5.50;2.35;;;18.00;99.90;;;;;;5052012;28;20177;-43
2022/06/06 09:18:39;;;;;;;13.65;2.38;;;18.20;99.90;;;;;;5062340;28;20048;-43
2022/06/06 09:21:35;;;;;;;7.22;2.42;;;18.50;99.90;;;;;;5052500;28;20263;-43
2022/06/06 09:24:23;;;;;;;8.07;2.20;;;18.70;99.90;;;;;;5047960;28;20094;-43
2022/06/06 09:27:02;;;;;;;4.82;1.92;;;18.80;99.90;;;;;;5055845;28;20043;-43
2022/06/06 09:30:08;;;;;;;7.47;2.10;;;18.70;99.90;;;;;;5063110;28;20059;-43
2022/06/06 09:33:06;;;;;;;8.32;2.47;;;18.50;99.90;;;;;;5058816;28;20053;-44
2022/06/06 09:35:39;;;;;;;10.88;2.30;;;18.30;99.90;;;;;;5052374;28;20094;-43
2022/06/06 09:38:18;;;;;;;8.70;2.70;;;18.20;99.90;;;;;;5052453;28;20045;-42
2022/06/06 09:41:10;;;;;;;7.25;2.95;;;18.20;99.90;;;;;;5060711;28;20049;-43
2022/06/06 09:43:48;;;;;;;7.85;2.60;;;18.30;99.90;;;;;;5055501;28;20048;-42
2022/06/06 09:46:49;;;;;;;7.22;2.70;;;18.30;99.90;;;;;;5072865;28;20110;-42
2022/06/06 09:49:39;;;;;;;6.32;2.70;;;18.40;99.90;;;;;;5068029;28;20114;-43
2022/06/06 09:52:32;;;;;;;7.28;2.42;;;18.40;99.90;;;;;;5061644;28;20132;-43
2022/06/06 09:59:05;;;;;;;8.13;2.85;;;18.20;99.90;;;;;;4995761;28;20060;-43
2022/06/06 10:01:46;;;;;;;7.88;2.92;;;18.20;99.90;;;;;;5056049;28;20094;-43
2022/06/06 10:04:29;;;;;;;7.80;2.92;;;18.50;99.90;;;;;;5064470;28;20131;-43
2022/06/06 10:07:17;;;;;;;8.48;3.38;;;18.80;99.90;;;;;;5054638;28;20140;-43
2022/06/06 10:10:25;;;;;;;4.78;1.60;;;19.00;99.90;;;;;;5050992;28;20084;-43
2022/06/06 10:13:00;;;;;;;4.00;1.42;;;18.90;98.20;;;;;;5052391;28;20047;-43
2022/06/06 10:15:39;;;;;;;6.10;1.48;;;18.50;99.90;;;;;;5052710;28;20060;-44
2022/06/06 10:18:35;;;;;;;5.55;1.50;;;18.20;99.90;;;;;;5062895;28;20106;-44
2022/06/06 10:21:17;;;;;;;3.13;1.40;;;17.90;99.90;;;;;;5045943;28;20057;-44
2022/06/06 10:23:51;;;;;;;5.15;1.85;;;17.80;99.90;;;;;;5052660;28;20049;-43
2022/06/06 10:26:32;;;;;;;6.30;1.83;;;17.70;99.90;;;;;;5056679;28;20045;-43
2022/06/06 10:29:26;;;;;;;6.45;2.15;;;17.80;99.90;;;;;;5057397;28;20098;-44
2022/06/06 10:32:02;;;;;;;6.30;2.92;;;17.90;99.90;;;;;;5063936;28;20094;-43
2022/06/06 10:34:45;;;;;;;8.35;2.40;;;18.20;99.90;;;;;;5068544;28;20064;-44
2022/06/06 10:37:23;;;;;;;7.68;2.08;;;18.40;99.90;;;;;;5055191;28;20053;-44
2022/06/06 10:40:08;;;;;;;7.40;1.88;;;18.50;99.90;;;;;;5057792;28;20103;-43
2022/06/06 10:42:43;;;;;;;7.13;1.70;;;18.60;99.90;;;;;;5073808;28;20053;-44
2022/06/06 10:45:17;;;;;;;4.57;1.60;;;18.90;99.90;;;;;;5075939;28;20044;-44
2022/06/06 10:48:08;;;;;;;6.78;1.45;;;19.30;99.90;;;;;;5056484;28;20091;-43
2022/06/06 10:53:39;;;;;;;4.22;1.77;;;19.40;97.60;;;;;;5055130;28;20048;-43
2022/06/06 10:56:21;;;;;;;6.78;1.73;;;19.40;98.30;;;;;;5054817;28;20477;-43
2022/06/06 10:59:01;;;;;;;10.73;2.13;;;19.40;98.20;;;;;;5068710;28;20040;-44
2022/06/06 11:02:00;;;;;;;4.65;1.50;;;19.30;98.20;;;;;;5074338;28;20562;-43
2022/06/06 11:05:11;;;;;;;6.10;1.80;;;19.30;97.60;;;;;;5054378;28;20049;-43
2022/06/06 11:08:13;;;;;;;5.82;1.63;;;19.50;97.40;;;;;;5061384;28;20051;-43
2022/06/06 11:10:58;;;;;;;3.63;1.67;;;19.70;97.70;;;;;;5063790;28;20052;-44
2022/06/06 11:13:30;;;;;;;3.33;1.77;;;19.80;96.70;;;;;;5058379;28;20183;-43
2022/06/06 11:16:09;;;;;;;7.60;1.70;;;19.90;96.40;;;;;;5068052;28;20535;-43
2022/06/06 11:18:52;;;;;;;3.95;1.42;;;19.90;95.70;;;;;;5060459;28;20489;-43
2022/06/06 11:21:32;;;;;;;5.28;1.33;;;20.00;95.90;;;;;;5053569;28;20049;-43
2022/06/06 11:24:07;;;;;;;4.43;1.60;;;20.20;95.80;;;;;;5054955;28;20103;-43
2022/06/06 11:26:48;;;;;;;6.38;1.52;;;20.30;95.50;;;;;;5054385;28;20048;-43
2022/06/06 11:29:46;;;;;;;2.77;1.33;;;20.30;93.60;;;;;;5054574;28;20132;-43
2022/06/06 11:32:37;;;;;;;3.40;1.40;;;20.20;93.50;;;;;;5046377;28;20091;-43
2022/06/06 11:35:25;;;;;;;7.32;1.60;;;20.00;94.30;;;;;;5055250;28;20095;-43
2022/06/06 11:38:18;;;;;;;3.15;1.60;;;20.10;94.80;;;;;;5054715;28;20053;-44
2022/06/06 11:41:13;;;;;;;3.85;1.40;;;20.20;93.70;;;;;;5054767;28;20041;-44
2022/06/06 11:44:09;;;;;;;4.32;1.20;;;20.40;95.10;;;;;;5059860;28;20044;-44
2022/06/06 11:47:15;;;;;;;4.85;1.38;;;20.70;94.30;;;;;;5068192;28;20121;-44
2022/06/06 11:50:27;;;;;;;4.25;1.35;;;20.90;92.10;;;;;;5071849;28;20049;-44
2022/06/06 11:53:11;;;;;;;4.13;1.23;;;21.10;91.90;;;;;;5059147;28;20052;-44
2022/06/06 11:56:01;;;;;;;4.07;1.27;;;21.30;91.60;;;;;;5054449;28;20061;-44
2022/06/06 11:59:12;;;;;;;5.93;1.30;;;21.50;91.90;;;;;;5061732;28;20060;-44
2022/06/06 12:02:06;;;;;;;6.90;1.65;;;21.40;87.20;;;;;;5053635;28;21355;-44
2022/06/06 12:04:59;;;;;;;4.95;1.42;;;21.20;91.50;;;;;;5054820;28;20041;-44
2022/06/06 12:07:40;;;;;;;5.03;0.90;;;21.10;91.80;;;;;;5067633;28;20102;-45
2022/06/06 12:10:10;;;;;;;1.80;0.70;;;21.20;90.00;;;;;;5073384;28;20094;-44
2022/06/06 12:12:50;;;;;;;1.27;0.70;;;21.20;90.00;;;;;;5059032;28;20493;-44
2022/06/06 12:15:48;;;;;;;2.65;0.70;;;21.20;88.20;;;;;;5069131;28;20126;-44
2022/06/06 12:18:21;;;;;;;3.13;0.73;;;21.10;89.10;;;;;;5074155;28;20080;-44
2022/06/06 12:21:26;;;;;;;2.80;0.65;;;21.10;89.30;;;;;;5073017;28;20169;-44
2022/06/06 12:24:10;;;;;;;1.17;0.55;;;21.10;87.60;;;;;;5055738;28;20102;-44
2022/06/06 12:27:04;;;;;;;2.20;0.68;;;21.00;86.80;;;;;;5053279;28;20049;-45
2022/06/06 12:29:53;;;;;;;2.45;0.70;;;20.90;84.20;;;;;;5054077;28;20146;-45
2022/06/06 12:32:36;;;;;;;3.00;0.80;;;20.80;84.40;;;;;;5073155;28;20056;-45
2022/06/06 12:35:05;;;;;;;4.95;1.00;;;20.60;83.80;;;;;;5073098;28;20049;-45
2022/06/06 12:37:36;;;;;;;8.52;1.15;;;20.40;85.00;;;;;;5064152;28;20113;-45
2022/06/06 12:40:07;;;;;;;3.10;0.82;;;20.40;85.20;;;;;;5068383;28;20084;-45
2022/06/06 12:42:46;;;;;;;2.50;0.80;;;20.30;86.30;;;;;;5069036;28;20064;-44
2022/06/06 12:45:41;;;;;;;3.45;0.98;;;20.30;85.30;;;;;;5052458;28;20476;-45
2022/06/06 12:48:46;;;;;;;4.75;1.00;;;20.20;87.10;;;;;;5059173;28;20045;-44
2022/06/06 12:51:18;;;;;;;4.28;1.08;;;20.20;87.60;;;;;;5068254;28;20102;-45
2022/06/06 12:54:16;;;;;;;2.95;1.20;;;20.20;87.80;;;;;;5073919;28;20059;-44
2022/06/06 12:56:54;;;;;;;1.92;0.98;;;20.10;87.30;;;;;;5063771;28;20053;-44
2022/06/06 12:59:32;;;;;;;2.58;0.85;;;20.10;87.20;;;;;;5072116;28;20056;-44
2022/06/06 13:02:00;;;;;;;2.20;1.00;;;20.00;86.50;;;;;;5064127;28;20057;-45
2022/06/06 13:04:37;;;;;;;3.40;1.00;;;20.00;88.10;;;;;;5052548;28;20048;-45
2022/06/06 13:07:14;;;;;;;2.55;1.13;;;20.00;88.80;;;;;;5061297;28;20044;-45
2022/06/06 13:09:55;;;;;;;4.47;1.08;;;20.00;90.00;;;;;;5066934;28;20051;-45
2022/06/06 13:12:28;;;;;;;1.92;0.70;;;20.00;89.50;;;;;;5073437;28;20040;-45
2022/06/06 13:15:06;;;;;;;2.75;1.13;;;20.00;89.90;;;;;;5068548;28;20041;-45
2022/06/06 13:17:38;;;;;;;2.55;0.90;;;20.10;89.40;;;;;;5059883;28;20142;-45
2022/06/06 13:20:18;;;;;;;2.63;0.80;;;19.90;90.10;;;;;;5048977;28;20144;-45
2022/06/06 13:23:16;;;;;;;1.48;0.68;;;19.90;89.80;;;;;;5058051;28;20044;-44
2022/06/06 13:25:49;;;;;;;5.40;0.80;;;19.90;90.10;;;;;;5051980;28;20148;-44
2022/06/06 13:28:20;;;;;;;2.95;0.82;;;19.80;89.40;;;;;;5051745;28;20079;-45
2022/06/06 13:31:00;;;;;;;2.65;0.68;;;19.70;90.10;;;;;;5064826;28;20396;-44
2022/06/06 13:33:36;;;;;;;1.92;0.80;;;19.70;90.20;;;;;;5058799;28;20158;-44
2022/06/06 13:36:09;;;;;;;4.45;0.88;;;19.60;90.30;;;;;;5060887;28;20049;-44
2022/06/06 13:38:44;;;;;;;4.28;1.10;;;19.50;90.60;;;;;;5077622;28;20552;-44
2022/06/06 13:41:18;;;;;;;6.20;1.40;;;19.40;91.00;;;;;;5082580;28;20508;-44
2022/06/06 13:43:52;;;;;;;3.92;1.38;;;19.30;91.70;;;;;;5054012;28;20367;-44
2022/06/06 13:46:40;;;;;;;5.40;1.88;;;19.10;93.20;;;;;;5070333;28;20067;-44
2022/06/06 13:49:22;;;;;;;5.18;1.65;;;19.00;94.70;;;;;;5053824;28;20041;-45
2022/06/06 13:51:57;;;;;;;4.93;1.55;;;18.70;95.80;;;;;;5052892;28;20067;-44
2022/06/06 13:54:29;;;;;;;4.00;1.77;;;18.50;96.90;;;;;;5055206;28;20057;-45